sensor_id;sensor_type;location;lat;lon;timestamp;P1;durP1;ratioP1;P2;durP2;ratioP2
72284;SDS011;60220;53.552;10.092;2023-05-10T00:00:48;4.35;;;2.35;;
72284;SDS011;60220;53.552;10.092;2023-05-10T00:03:15;6.15;;;2.30;;
72284;SDS011;60220;53.552;10.092;2023-05-10T00:05:45;7.47;;;2.47;;
72284;SDS011;60220;53.552;10.092;2023-05-10T00:08:11;6.22;;;1.88;;
72284;SDS011;60220;53.552;10.092;2023-05-10T00:10:38;22.52;;;2.33;;
72284;SDS011;60220;53.552;10.092;2023-05-10T00:13:07;8.00;;;1.92;;
72284;SDS011;60220;53.552;10.092;2023-05-10T00:15:34;8.13;;;2.60;;
72284;SDS011;60220;53.552;10.092;2023-05-10T00:18:03;5.22;;;2.53;;
72284;SDS011;60220;53.552;10.092;2023-05-10T00:20:29;3.00;;;1.85;;
72284;SDS011;60220;53.552;10.092;2023-05-10T00:22:58;3.45;;;2.30;;
72284;SDS011;60220;53.552;10.092;2023-05-10T00:25:25;3.13;;;2.28;;
72284;SDS011;60220;53.552;10.092;2023-05-10T00:27:52;4.22;;;1.90;;
72284;SDS011;60220;53.552;10.092;2023-05-10T00:30:21;3.65;;;1.70;;
72284;SDS011;60220;53.552;10.092;2023-05-10T00:32:48;3.85;;;2.28;;
72284;SDS011;60220;53.552;10.092;2023-05-10T00:35:16;3.78;;;2.38;;
72284;SDS011;60220;53.552;10.092;2023-05-10T00:37:43;4.13;;;1.88;;
72284;SDS011;60220;53.552;10.092;2023-05-10T00:40:12;5.28;;;2.08;;
72284;SDS011;60220;53.552;10.092;2023-05-10T00:42:41;7.43;;;2.60;;
72284;SDS011;60220;53.552;10.092;2023-05-10T00:45:08;4.55;;;1.95;;
72284;SDS011;60220;53.552;10.092;2023-05-10T00:47:37;6.10;;;2.60;;
72284;SDS011;60220;53.552;10.092;2023-05-10T00:50:05;6.50;;;2.35;;
72284;SDS011;60220;53.552;10.092;2023-05-10T00:52:37;8.45;;;2.45;;
72284;SDS011;60220;53.552;10.092;2023-05-10T00:55:05;3.30;;;2.13;;
72284;SDS011;60220;53.552;10.092;2023-05-10T00:57:33;3.88;;;2.28;;
72284;SDS011;60220;53.552;10.092;2023-05-10T01:00:02;3.03;;;1.98;;
72284;SDS011;60220;53.552;10.092;2023-05-10T01:02:29;2.00;;;1.73;;
72284;SDS011;60220;53.552;10.092;2023-05-10T01:04:57;4.32;;;2.17;;
72284;SDS011;60220;53.552;10.092;2023-05-10T01:07:27;3.33;;;2.15;;
72284;SDS011;60220;53.552;10.092;2023-05-10T01:09:54;4.63;;;2.38;;
72284;SDS011;60220;53.552;10.092;2023-05-10T01:12:21;3.72;;;2.03;;
72284;SDS011;60220;53.552;10.092;2023-05-10T01:14:47;3.05;;;2.08;;
72284;SDS011;60220;53.552;10.092;2023-05-10T01:17:14;4.50;;;2.58;;
72284;SDS011;60220;53.552;10.092;2023-05-10T01:19:44;6.82;;;2.33;;
72284;SDS011;60220;53.552;10.092;2023-05-10T01:22:18;4.47;;;2.60;;
72284;SDS011;60220;53.552;10.092;2023-05-10T01:28:03;6.00;;;2.65;;
72284;SDS011;60220;53.552;10.092;2023-05-10T01:33:57;4.38;;;2.30;;
72284;SDS011;60220;53.552;10.092;2023-05-10T01:36:29;4.43;;;2.33;;
72284;SDS011;60220;53.552;10.092;2023-05-10T01:39:01;4.13;;;2.70;;
72284;SDS011;60220;53.552;10.092;2023-05-10T01:41:36;5.43;;;2.40;;
72284;SDS011;60220;53.552;10.092;2023-05-10T01:44:09;5.35;;;2.45;;
72284;SDS011;60220;53.552;10.092;2023-05-10T01:46:43;2.30;;;1.73;;
72284;SDS011;60220;53.552;10.092;2023-05-10T01:49:17;3.70;;;2.55;;
72284;SDS011;60220;53.552;10.092;2023-05-10T01:51:53;5.82;;;2.60;;
72284;SDS011;60220;53.552;10.092;2023-05-10T01:54:21;3.42;;;2.00;;
72284;SDS011;60220;53.552;10.092;2023-05-10T01:56:52;2.65;;;1.92;;
72284;SDS011;60220;53.552;10.092;2023-05-10T01:59:25;4.47;;;2.53;;
72284;SDS011;60220;53.552;10.092;2023-05-10T02:01:56;3.28;;;2.40;;
72284;SDS011;60220;53.552;10.092;2023-05-10T02:04:26;4.80;;;2.60;;
72284;SDS011;60220;53.552;10.092;2023-05-10T02:06:54;3.42;;;2.45;;
72284;SDS011;60220;53.552;10.092;2023-05-10T02:09:21;4.90;;;2.30;;
72284;SDS011;60220;53.552;10.092;2023-05-10T02:11:52;5.15;;;2.47;;
72284;SDS011;60220;53.552;10.092;2023-05-10T02:14:23;6.45;;;2.58;;
72284;SDS011;60220;53.552;10.092;2023-05-10T02:16:52;4.28;;;2.30;;
72284;SDS011;60220;53.552;10.092;2023-05-10T02:19:22;6.25;;;2.28;;
72284;SDS011;60220;53.552;10.092;2023-05-10T02:21:53;3.40;;;2.00;;
72284;SDS011;60220;53.552;10.092;2023-05-10T02:24:21;4.40;;;2.97;;
72284;SDS011;60220;53.552;10.092;2023-05-10T02:26:53;6.88;;;2.10;;
72284;SDS011;60220;53.552;10.092;2023-05-10T02:29:22;10.10;;;2.53;;
72284;SDS011;60220;53.552;10.092;2023-05-10T02:31:51;4.50;;;2.40;;
72284;SDS011;60220;53.552;10.092;2023-05-10T02:34:18;3.50;;;2.42;;
72284;SDS011;60220;53.552;10.092;2023-05-10T02:36:46;3.78;;;2.30;;
72284;SDS011;60220;53.552;10.092;2023-05-10T02:39:15;4.18;;;2.30;;
72284;SDS011;60220;53.552;10.092;2023-05-10T02:41:43;6.68;;;2.15;;
72284;SDS011;60220;53.552;10.092;2023-05-10T02:44:12;6.18;;;2.22;;
72284;SDS011;60220;53.552;10.092;2023-05-10T02:46:42;3.33;;;2.20;;
72284;SDS011;60220;53.552;10.092;2023-05-10T02:49:08;3.45;;;2.08;;
72284;SDS011;60220;53.552;10.092;2023-05-10T02:51:36;6.97;;;2.42;;
72284;SDS011;60220;53.552;10.092;2023-05-10T02:54:07;3.55;;;2.63;;
72284;SDS011;60220;53.552;10.092;2023-05-10T02:56:40;5.18;;;2.45;;
72284;SDS011;60220;53.552;10.092;2023-05-10T02:59:13;7.07;;;2.67;;
72284;SDS011;60220;53.552;10.092;2023-05-10T03:01:40;6.15;;;2.60;;
72284;SDS011;60220;53.552;10.092;2023-05-10T03:04:08;4.00;;;2.63;;
72284;SDS011;60220;53.552;10.092;2023-05-10T03:06:35;4.38;;;2.40;;
72284;SDS011;60220;53.552;10.092;2023-05-10T03:09:04;3.08;;;2.35;;
72284;SDS011;60220;53.552;10.092;2023-05-10T03:11:39;7.65;;;3.10;;
72284;SDS011;60220;53.552;10.092;2023-05-10T03:14:16;8.20;;;2.88;;
72284;SDS011;60220;53.552;10.092;2023-05-10T03:16:52;9.65;;;5.40;;
72284;SDS011;60220;53.552;10.092;2023-05-10T03:19:25;7.80;;;3.08;;
72284;SDS011;60220;53.552;10.092;2023-05-10T03:21:57;6.25;;;3.33;;
72284;SDS011;60220;53.552;10.092;2023-05-10T03:24:28;6.32;;;3.72;;
72284;SDS011;60220;53.552;10.092;2023-05-10T03:26:58;7.72;;;3.90;;
72284;SDS011;60220;53.552;10.092;2023-05-10T03:29:28;9.02;;;4.40;;
72284;SDS011;60220;53.552;10.092;2023-05-10T03:31:57;11.05;;;3.92;;
72284;SDS011;60220;53.552;10.092;2023-05-10T03:34:27;4.85;;;2.97;;
72284;SDS011;60220;53.552;10.092;2023-05-10T03:36:59;8.23;;;3.75;;
72284;SDS011;60220;53.552;10.092;2023-05-10T03:39:28;6.85;;;3.38;;
72284;SDS011;60220;53.552;10.092;2023-05-10T03:41:54;3.92;;;2.90;;
72284;SDS011;60220;53.552;10.092;2023-05-10T03:44:22;12.95;;;6.10;;
72284;SDS011;60220;53.552;10.092;2023-05-10T03:46:49;11.38;;;5.97;;
72284;SDS011;60220;53.552;10.092;2023-05-10T03:49:16;4.45;;;3.15;;
72284;SDS011;60220;53.552;10.092;2023-05-10T03:51:42;4.85;;;2.85;;
72284;SDS011;60220;53.552;10.092;2023-05-10T03:54:11;8.90;;;3.47;;
72284;SDS011;60220;53.552;10.092;2023-05-10T03:56:39;5.65;;;2.95;;
72284;SDS011;60220;53.552;10.092;2023-05-10T03:59:05;4.63;;;2.63;;
72284;SDS011;60220;53.552;10.092;2023-05-10T04:01:35;10.10;;;4.53;;
72284;SDS011;60220;53.552;10.092;2023-05-10T04:04:01;8.05;;;3.88;;
72284;SDS011;60220;53.552;10.092;2023-05-10T04:06:29;6.75;;;3.67;;
72284;SDS011;60220;53.552;10.092;2023-05-10T04:08:58;5.13;;;2.78;;
72284;SDS011;60220;53.552;10.092;2023-05-10T04:11:28;7.15;;;3.40;;
72284;SDS011;60220;53.552;10.092;2023-05-10T04:13:55;20.00;;;9.50;;
72284;SDS011;60220;53.552;10.092;2023-05-10T04:16:24;16.77;;;6.20;;
72284;SDS011;60220;53.552;10.092;2023-05-10T04:18:52;4.32;;;3.13;;
72284;SDS011;60220;53.552;10.092;2023-05-10T04:21:19;4.57;;;2.63;;
72284;SDS011;60220;53.552;10.092;2023-05-10T04:23:45;3.50;;;2.72;;
72284;SDS011;60220;53.552;10.092;2023-05-10T04:26:12;3.85;;;2.58;;
72284;SDS011;60220;53.552;10.092;2023-05-10T04:28:39;7.70;;;4.70;;
72284;SDS011;60220;53.552;10.092;2023-05-10T04:31:06;8.02;;;3.13;;
72284;SDS011;60220;53.552;10.092;2023-05-10T04:33:34;3.58;;;2.70;;
72284;SDS011;60220;53.552;10.092;2023-05-10T04:36:03;8.60;;;4.72;;
72284;SDS011;60220;53.552;10.092;2023-05-10T04:38:30;8.38;;;2.95;;
72284;SDS011;60220;53.552;10.092;2023-05-10T04:41:03;5.05;;;2.75;;
72284;SDS011;60220;53.552;10.092;2023-05-10T04:43:33;8.27;;;3.17;;
72284;SDS011;60220;53.552;10.092;2023-05-10T04:46:02;8.32;;;4.28;;
72284;SDS011;60220;53.552;10.092;2023-05-10T04:48:29;5.57;;;3.10;;
72284;SDS011;60220;53.552;10.092;2023-05-10T04:50:55;4.07;;;2.90;;
72284;SDS011;60220;53.552;10.092;2023-05-10T04:53:26;6.47;;;2.50;;
72284;SDS011;60220;53.552;10.092;2023-05-10T04:55:52;11.90;;;7.13;;
72284;SDS011;60220;53.552;10.092;2023-05-10T04:58:19;30.98;;;19.90;;
72284;SDS011;60220;53.552;10.092;2023-05-10T05:00:46;20.73;;;11.38;;
72284;SDS011;60220;53.552;10.092;2023-05-10T05:03:13;6.47;;;3.63;;
72284;SDS011;60220;53.552;10.092;2023-05-10T05:05:40;10.10;;;5.35;;
72284;SDS011;60220;53.552;10.092;2023-05-10T05:08:06;5.43;;;2.78;;
72284;SDS011;60220;53.552;10.092;2023-05-10T05:10:36;5.35;;;3.25;;
72284;SDS011;60220;53.552;10.092;2023-05-10T05:13:03;4.40;;;3.25;;
72284;SDS011;60220;53.552;10.092;2023-05-10T05:15:30;7.55;;;4.43;;
72284;SDS011;60220;53.552;10.092;2023-05-10T05:17:56;9.00;;;4.30;;
72284;SDS011;60220;53.552;10.092;2023-05-10T05:20:23;11.13;;;3.30;;
72284;SDS011;60220;53.552;10.092;2023-05-10T05:22:49;4.13;;;3.00;;
72284;SDS011;60220;53.552;10.092;2023-05-10T05:25:20;5.55;;;2.55;;
72284;SDS011;60220;53.552;10.092;2023-05-10T05:27:48;5.35;;;3.05;;
72284;SDS011;60220;53.552;10.092;2023-05-10T05:30:15;3.30;;;2.83;;
72284;SDS011;60220;53.552;10.092;2023-05-10T05:32:42;6.32;;;4.25;;
72284;SDS011;60220;53.552;10.092;2023-05-10T05:35:08;6.18;;;3.90;;
72284;SDS011;60220;53.552;10.092;2023-05-10T05:37:36;5.45;;;3.05;;
72284;SDS011;60220;53.552;10.092;2023-05-10T05:40:05;5.53;;;2.25;;
72284;SDS011;60220;53.552;10.092;2023-05-10T05:42:32;4.30;;;2.75;;
72284;SDS011;60220;53.552;10.092;2023-05-10T05:45:00;4.50;;;2.90;;
72284;SDS011;60220;53.552;10.092;2023-05-10T05:47:30;5.45;;;2.85;;
72284;SDS011;60220;53.552;10.092;2023-05-10T05:49:56;3.85;;;2.45;;
72284;SDS011;60220;53.552;10.092;2023-05-10T05:52:23;11.68;;;2.25;;
72284;SDS011;60220;53.552;10.092;2023-05-10T05:54:49;3.55;;;2.60;;
72284;SDS011;60220;53.552;10.092;2023-05-10T05:57:19;6.55;;;2.75;;
72284;SDS011;60220;53.552;10.092;2023-05-10T05:59:45;4.82;;;2.97;;
72284;SDS011;60220;53.552;10.092;2023-05-10T06:02:13;4.25;;;2.83;;
72284;SDS011;60220;53.552;10.092;2023-05-10T06:04:40;9.23;;;4.40;;
72284;SDS011;60220;53.552;10.092;2023-05-10T06:07:07;5.35;;;3.60;;
72284;SDS011;60220;53.552;10.092;2023-05-10T06:09:34;5.53;;;2.90;;
72284;SDS011;60220;53.552;10.092;2023-05-10T06:12:00;5.38;;;2.92;;
72284;SDS011;60220;53.552;10.092;2023-05-10T06:14:27;6.13;;;3.10;;
72284;SDS011;60220;53.552;10.092;2023-05-10T06:16:54;4.22;;;2.72;;
72284;SDS011;60220;53.552;10.092;2023-05-10T06:19:21;4.43;;;2.72;;
72284;SDS011;60220;53.552;10.092;2023-05-10T06:21:48;3.47;;;2.40;;
72284;SDS011;60220;53.552;10.092;2023-05-10T06:24:16;6.88;;;2.75;;
72284;SDS011;60220;53.552;10.092;2023-05-10T06:26:45;4.53;;;2.58;;
72284;SDS011;60220;53.552;10.092;2023-05-10T06:29:17;5.65;;;2.90;;
72284;SDS011;60220;53.552;10.092;2023-05-10T06:31:43;4.00;;;2.47;;
72284;SDS011;60220;53.552;10.092;2023-05-10T06:34:10;6.57;;;3.05;;
72284;SDS011;60220;53.552;10.092;2023-05-10T06:36:38;4.13;;;2.50;;
72284;SDS011;60220;53.552;10.092;2023-05-10T06:39:05;4.95;;;2.28;;
72284;SDS011;60220;53.552;10.092;2023-05-10T06:41:32;2.95;;;2.38;;
72284;SDS011;60220;53.552;10.092;2023-05-10T06:43:58;5.80;;;2.72;;
72284;SDS011;60220;53.552;10.092;2023-05-10T06:46:25;4.60;;;2.67;;
72284;SDS011;60220;53.552;10.092;2023-05-10T06:48:52;5.40;;;2.42;;
72284;SDS011;60220;53.552;10.092;2023-05-10T06:51:19;3.78;;;2.97;;
72284;SDS011;60220;53.552;10.092;2023-05-10T06:53:47;3.90;;;2.30;;
72284;SDS011;60220;53.552;10.092;2023-05-10T06:56:14;4.78;;;2.78;;
72284;SDS011;60220;53.552;10.092;2023-05-10T06:58:41;5.25;;;2.53;;
72284;SDS011;60220;53.552;10.092;2023-05-10T07:01:07;4.88;;;2.67;;
72284;SDS011;60220;53.552;10.092;2023-05-10T07:03:37;4.13;;;2.63;;
72284;SDS011;60220;53.552;10.092;2023-05-10T07:06:04;4.30;;;3.00;;
72284;SDS011;60220;53.552;10.092;2023-05-10T07:08:34;7.00;;;3.10;;
72284;SDS011;60220;53.552;10.092;2023-05-10T07:11:03;4.43;;;2.42;;
72284;SDS011;60220;53.552;10.092;2023-05-10T07:13:32;5.30;;;3.05;;
72284;SDS011;60220;53.552;10.092;2023-05-10T07:15:59;5.90;;;2.97;;
72284;SDS011;60220;53.552;10.092;2023-05-10T07:18:27;5.25;;;3.10;;
72284;SDS011;60220;53.552;10.092;2023-05-10T07:20:53;6.47;;;2.88;;
72284;SDS011;60220;53.552;10.092;2023-05-10T07:23:22;4.72;;;3.10;;
72284;SDS011;60220;53.552;10.092;2023-05-10T07:25:50;3.50;;;2.33;;
72284;SDS011;60220;53.552;10.092;2023-05-10T07:28:18;4.90;;;2.65;;
72284;SDS011;60220;53.552;10.092;2023-05-10T07:30:49;3.67;;;2.28;;
72284;SDS011;60220;53.552;10.092;2023-05-10T07:33:16;3.35;;;2.70;;
72284;SDS011;60220;53.552;10.092;2023-05-10T07:35:45;5.95;;;2.78;;
72284;SDS011;60220;53.552;10.092;2023-05-10T07:38:11;5.18;;;2.72;;
72284;SDS011;60220;53.552;10.092;2023-05-10T07:40:38;7.78;;;2.70;;
72284;SDS011;60220;53.552;10.092;2023-05-10T07:43:08;3.13;;;2.30;;
72284;SDS011;60220;53.552;10.092;2023-05-10T07:45:36;11.25;;;3.40;;
72284;SDS011;60220;53.552;10.092;2023-05-10T07:48:05;3.10;;;2.35;;
72284;SDS011;60220;53.552;10.092;2023-05-10T07:50:31;6.97;;;3.97;;
72284;SDS011;60220;53.552;10.092;2023-05-10T07:52:58;6.97;;;3.40;;
72284;SDS011;60220;53.552;10.092;2023-05-10T07:55:25;3.70;;;2.53;;
72284;SDS011;60220;53.552;10.092;2023-05-10T07:57:52;6.57;;;2.83;;
72284;SDS011;60220;53.552;10.092;2023-05-10T08:00:19;6.72;;;2.63;;
72284;SDS011;60220;53.552;10.092;2023-05-10T08:02:50;4.78;;;3.10;;
72284;SDS011;60220;53.552;10.092;2023-05-10T08:05:17;4.63;;;3.13;;
72284;SDS011;60220;53.552;10.092;2023-05-10T08:07:43;4.38;;;2.90;;
72284;SDS011;60220;53.552;10.092;2023-05-10T08:10:10;2.90;;;2.38;;
72284;SDS011;60220;53.552;10.092;2023-05-10T08:12:37;6.95;;;2.88;;
72284;SDS011;60220;53.552;10.092;2023-05-10T08:15:05;2.20;;;2.00;;
72284;SDS011;60220;53.552;10.092;2023-05-10T08:17:32;4.72;;;2.67;;
72284;SDS011;60220;53.552;10.092;2023-05-10T08:20:00;7.07;;;2.83;;
72284;SDS011;60220;53.552;10.092;2023-05-10T08:22:28;4.30;;;3.03;;
72284;SDS011;60220;53.552;10.092;2023-05-10T08:24:54;8.52;;;2.92;;
72284;SDS011;60220;53.552;10.092;2023-05-10T08:27:21;5.10;;;2.60;;
72284;SDS011;60220;53.552;10.092;2023-05-10T08:29:50;3.53;;;2.70;;
72284;SDS011;60220;53.552;10.092;2023-05-10T08:32:17;3.67;;;2.45;;
72284;SDS011;60220;53.552;10.092;2023-05-10T08:34:43;3.60;;;2.70;;
72284;SDS011;60220;53.552;10.092;2023-05-10T08:37:11;5.05;;;2.88;;
72284;SDS011;60220;53.552;10.092;2023-05-10T08:39:40;5.53;;;2.88;;
72284;SDS011;60220;53.552;10.092;2023-05-10T08:42:07;5.38;;;3.17;;
72284;SDS011;60220;53.552;10.092;2023-05-10T08:44:38;6.53;;;2.60;;
72284;SDS011;60220;53.552;10.092;2023-05-10T08:47:05;3.72;;;2.22;;
72284;SDS011;60220;53.552;10.092;2023-05-10T08:49:33;8.43;;;2.95;;
72284;SDS011;60220;53.552;10.092;2023-05-10T08:52:01;7.13;;;2.80;;
72284;SDS011;60220;53.552;10.092;2023-05-10T08:54:32;6.38;;;2.80;;
72284;SDS011;60220;53.552;10.092;2023-05-10T08:56:59;5.53;;;3.05;;
72284;SDS011;60220;53.552;10.092;2023-05-10T08:59:26;2.75;;;2.25;;
72284;SDS011;60220;53.552;10.092;2023-05-10T09:01:53;12.95;;;2.75;;
72284;SDS011;60220;53.552;10.092;2023-05-10T09:04:23;5.55;;;2.55;;
72284;SDS011;60220;53.552;10.092;2023-05-10T09:06:52;4.00;;;2.97;;
72284;SDS011;60220;53.552;10.092;2023-05-10T09:09:19;6.28;;;3.35;;
72284;SDS011;60220;53.552;10.092;2023-05-10T09:11:49;5.47;;;2.80;;
72284;SDS011;60220;53.552;10.092;2023-05-10T09:14:18;6.00;;;3.00;;
72284;SDS011;60220;53.552;10.092;2023-05-10T09:16:46;6.68;;;2.88;;
72284;SDS011;60220;53.552;10.092;2023-05-10T09:19:15;6.40;;;3.70;;
72284;SDS011;60220;53.552;10.092;2023-05-10T09:21:43;5.70;;;3.05;;
72284;SDS011;60220;53.552;10.092;2023-05-10T09:24:09;6.30;;;2.83;;
72284;SDS011;60220;53.552;10.092;2023-05-10T09:26:39;4.72;;;2.88;;
72284;SDS011;60220;53.552;10.092;2023-05-10T09:29:13;5.82;;;3.42;;
72284;SDS011;60220;53.552;10.092;2023-05-10T09:31:43;7.07;;;3.17;;
72284;SDS011;60220;53.552;10.092;2023-05-10T09:34:16;4.68;;;2.95;;
72284;SDS011;60220;53.552;10.092;2023-05-10T09:36:50;3.72;;;2.90;;
72284;SDS011;60220;53.552;10.092;2023-05-10T09:39:18;6.18;;;3.42;;
72284;SDS011;60220;53.552;10.092;2023-05-10T09:41:46;4.78;;;3.00;;
72284;SDS011;60220;53.552;10.092;2023-05-10T09:44:17;6.95;;;3.00;;
72284;SDS011;60220;53.552;10.092;2023-05-10T09:46:48;5.75;;;3.63;;
72284;SDS011;60220;53.552;10.092;2023-05-10T09:49:16;6.35;;;3.45;;
72284;SDS011;60220;53.552;10.092;2023-05-10T09:51:43;5.22;;;3.35;;
72284;SDS011;60220;53.552;10.092;2023-05-10T09:54:10;5.57;;;3.60;;
72284;SDS011;60220;53.552;10.092;2023-05-10T09:56:37;4.45;;;3.30;;
72284;SDS011;60220;53.552;10.092;2023-05-10T09:59:08;9.55;;;4.22;;
72284;SDS011;60220;53.552;10.092;2023-05-10T10:01:38;6.38;;;3.80;;
72284;SDS011;60220;53.552;10.092;2023-05-10T10:04:06;5.22;;;4.35;;
72284;SDS011;60220;53.552;10.092;2023-05-10T10:06:36;5.57;;;4.93;;
72284;SDS011;60220;53.552;10.092;2023-05-10T10:09:06;6.80;;;5.43;;
72284;SDS011;60220;53.552;10.092;2023-05-10T10:11:34;11.85;;;5.43;;
72284;SDS011;60220;53.552;10.092;2023-05-10T10:14:04;6.72;;;5.75;;
72284;SDS011;60220;53.552;10.092;2023-05-10T10:16:30;6.50;;;5.43;;
72284;SDS011;60220;53.552;10.092;2023-05-10T10:18:59;8.50;;;6.15;;
72284;SDS011;60220;53.552;10.092;2023-05-10T10:21:28;8.38;;;5.32;;
72284;SDS011;60220;53.552;10.092;2023-05-10T10:23:54;8.80;;;5.38;;
72284;SDS011;60220;53.552;10.092;2023-05-10T10:26:21;8.10;;;5.47;;
72284;SDS011;60220;53.552;10.092;2023-05-10T10:28:49;7.25;;;5.60;;
72284;SDS011;60220;53.552;10.092;2023-05-10T10:31:25;7.85;;;5.60;;
72284;SDS011;60220;53.552;10.092;2023-05-10T10:34:03;10.15;;;5.65;;
72284;SDS011;60220;53.552;10.092;2023-05-10T10:36:33;10.25;;;5.80;;
72284;SDS011;60220;53.552;10.092;2023-05-10T10:39:08;8.95;;;5.93;;
72284;SDS011;60220;53.552;10.092;2023-05-10T10:41:39;8.43;;;5.80;;
72284;SDS011;60220;53.552;10.092;2023-05-10T10:44:24;10.68;;;6.00;;
72284;SDS011;60220;53.552;10.092;2023-05-10T10:47:00;8.70;;;6.03;;
72284;SDS011;60220;53.552;10.092;2023-05-10T10:49:32;9.30;;;6.53;;
72284;SDS011;60220;53.552;10.092;2023-05-10T10:52:15;13.23;;;7.20;;
72284;SDS011;60220;53.552;10.092;2023-05-10T10:54:49;8.45;;;5.95;;
72284;SDS011;60220;53.552;10.092;2023-05-10T10:57:18;9.27;;;6.38;;
72284;SDS011;60220;53.552;10.092;2023-05-10T10:59:48;9.15;;;6.75;;
72284;SDS011;60220;53.552;10.092;2023-05-10T11:02:34;9.95;;;7.05;;
72284;SDS011;60220;53.552;10.092;2023-05-10T11:08:12;10.27;;;6.07;;
72284;SDS011;60220;53.552;10.092;2023-05-10T11:10:49;9.82;;;6.32;;
72284;SDS011;60220;53.552;10.092;2023-05-10T11:13:26;8.82;;;6.53;;
72284;SDS011;60220;53.552;10.092;2023-05-10T11:15:55;11.52;;;6.93;;
72284;SDS011;60220;53.552;10.092;2023-05-10T11:18:26;14.23;;;6.97;;
72284;SDS011;60220;53.552;10.092;2023-05-10T11:20:58;10.10;;;7.05;;
72284;SDS011;60220;53.552;10.092;2023-05-10T11:23:31;11.40;;;7.65;;
72284;SDS011;60220;53.552;10.092;2023-05-10T11:25:58;11.32;;;7.45;;
72284;SDS011;60220;53.552;10.092;2023-05-10T11:28:26;10.32;;;7.03;;
72284;SDS011;60220;53.552;10.092;2023-05-10T11:30:53;10.73;;;6.88;;
72284;SDS011;60220;53.552;10.092;2023-05-10T11:33:20;10.00;;;7.15;;
72284;SDS011;60220;53.552;10.092;2023-05-10T11:35:47;14.48;;;8.05;;
72284;SDS011;60220;53.552;10.092;2023-05-10T11:38:17;13.07;;;8.00;;
72284;SDS011;60220;53.552;10.092;2023-05-10T11:40:46;11.63;;;7.45;;
72284;SDS011;60220;53.552;10.092;2023-05-10T11:43:18;11.27;;;7.93;;
72284;SDS011;60220;53.552;10.092;2023-05-10T11:45:45;13.32;;;8.45;;
72284;SDS011;60220;53.552;10.092;2023-05-10T11:48:11;12.23;;;8.23;;
72284;SDS011;60220;53.552;10.092;2023-05-10T11:50:40;12.75;;;8.10;;
72284;SDS011;60220;53.552;10.092;2023-05-10T11:53:10;15.15;;;8.57;;
72284;SDS011;60220;53.552;10.092;2023-05-10T11:55:41;13.25;;;8.68;;
72284;SDS011;60220;53.552;10.092;2023-05-10T11:58:07;14.25;;;8.43;;
72284;SDS011;60220;53.552;10.092;2023-05-10T12:00:36;11.60;;;8.25;;
72284;SDS011;60220;53.552;10.092;2023-05-10T12:03:03;11.75;;;7.30;;
72284;SDS011;60220;53.552;10.092;2023-05-10T12:05:31;11.70;;;7.93;;
72284;SDS011;60220;53.552;10.092;2023-05-10T12:08:11;13.82;;;8.70;;
72284;SDS011;60220;53.552;10.092;2023-05-10T12:10:42;12.10;;;8.02;;
72284;SDS011;60220;53.552;10.092;2023-05-10T12:13:12;12.20;;;8.45;;
72284;SDS011;60220;53.552;10.092;2023-05-10T12:15:40;15.65;;;8.93;;
72284;SDS011;60220;53.552;10.092;2023-05-10T12:18:10;10.95;;;8.00;;
72284;SDS011;60220;53.552;10.092;2023-05-10T12:20:38;15.68;;;8.32;;
72284;SDS011;60220;53.552;10.092;2023-05-10T12:23:07;12.38;;;7.85;;
72284;SDS011;60220;53.552;10.092;2023-05-10T12:25:35;11.75;;;8.13;;
72284;SDS011;60220;53.552;10.092;2023-05-10T12:28:05;15.27;;;8.10;;
72284;SDS011;60220;53.552;10.092;2023-05-10T12:30:38;13.32;;;7.05;;
72284;SDS011;60220;53.552;10.092;2023-05-10T12:33:07;12.85;;;8.13;;
72284;SDS011;60220;53.552;10.092;2023-05-10T12:35:43;13.95;;;8.90;;
72284;SDS011;60220;53.552;10.092;2023-05-10T12:38:26;14.30;;;9.15;;
72284;SDS011;60220;53.552;10.092;2023-05-10T12:40:56;14.18;;;7.75;;
72284;SDS011;60220;53.552;10.092;2023-05-10T12:43:24;9.82;;;7.13;;
72284;SDS011;60220;53.552;10.092;2023-05-10T12:45:53;11.82;;;7.90;;
72284;SDS011;60220;53.552;10.092;2023-05-10T12:48:20;14.77;;;8.43;;
72284;SDS011;60220;53.552;10.092;2023-05-10T12:50:49;12.80;;;8.43;;
72284;SDS011;60220;53.552;10.092;2023-05-10T12:53:16;13.93;;;7.53;;
72284;SDS011;60220;53.552;10.092;2023-05-10T12:55:43;11.80;;;8.32;;
72284;SDS011;60220;53.552;10.092;2023-05-10T12:58:09;11.25;;;7.80;;
72284;SDS011;60220;53.552;10.092;2023-05-10T13:00:38;10.57;;;7.72;;
72284;SDS011;60220;53.552;10.092;2023-05-10T13:03:04;10.18;;;6.72;;
72284;SDS011;60220;53.552;10.092;2023-05-10T13:05:31;8.32;;;6.80;;
72284;SDS011;60220;53.552;10.092;2023-05-10T13:07:58;10.93;;;6.82;;
72284;SDS011;60220;53.552;10.092;2023-05-10T13:10:25;9.68;;;6.65;;
72284;SDS011;60220;53.552;10.092;2023-05-10T13:12:56;8.68;;;5.85;;
72284;SDS011;60220;53.552;10.092;2023-05-10T13:15:23;8.10;;;6.07;;
72284;SDS011;60220;53.552;10.092;2023-05-10T13:17:52;8.10;;;5.78;;
72284;SDS011;60220;53.552;10.092;2023-05-10T13:20:19;10.82;;;6.93;;
72284;SDS011;60220;53.552;10.092;2023-05-10T13:22:46;9.23;;;6.35;;
72284;SDS011;60220;53.552;10.092;2023-05-10T13:25:13;8.05;;;5.50;;
72284;SDS011;60220;53.552;10.092;2023-05-10T13:27:42;8.07;;;5.88;;
72284;SDS011;60220;53.552;10.092;2023-05-10T13:30:11;7.88;;;6.15;;
72284;SDS011;60220;53.552;10.092;2023-05-10T13:32:40;9.18;;;6.85;;
72284;SDS011;60220;53.552;10.092;2023-05-10T13:35:09;9.35;;;6.00;;
72284;SDS011;60220;53.552;10.092;2023-05-10T13:37:35;16.08;;;9.45;;
72284;SDS011;60220;53.552;10.092;2023-05-10T13:40:02;9.48;;;7.32;;
72284;SDS011;60220;53.552;10.092;2023-05-10T13:42:30;8.50;;;5.95;;
72284;SDS011;60220;53.552;10.092;2023-05-10T13:44:58;11.90;;;7.72;;
72284;SDS011;60220;53.552;10.092;2023-05-10T13:47:27;6.63;;;5.50;;
72284;SDS011;60220;53.552;10.092;2023-05-10T13:49:54;6.70;;;4.82;;
72284;SDS011;60220;53.552;10.092;2023-05-10T13:52:25;8.27;;;5.85;;
72284;SDS011;60220;53.552;10.092;2023-05-10T13:54:54;7.35;;;5.35;;
72284;SDS011;60220;53.552;10.092;2023-05-10T13:57:21;7.93;;;5.53;;
72284;SDS011;60220;53.552;10.092;2023-05-10T13:59:49;6.32;;;5.07;;
72284;SDS011;60220;53.552;10.092;2023-05-10T14:02:15;6.20;;;4.75;;
72284;SDS011;60220;53.552;10.092;2023-05-10T14:04:42;8.02;;;4.80;;
72284;SDS011;60220;53.552;10.092;2023-05-10T14:07:09;6.18;;;4.65;;
72284;SDS011;60220;53.552;10.092;2023-05-10T14:09:39;5.38;;;4.15;;
72284;SDS011;60220;53.552;10.092;2023-05-10T14:12:08;5.55;;;4.22;;
72284;SDS011;60220;53.552;10.092;2023-05-10T14:14:34;6.35;;;4.40;;
72284;SDS011;60220;53.552;10.092;2023-05-10T14:17:01;6.68;;;4.63;;
72284;SDS011;60220;53.552;10.092;2023-05-10T14:19:27;4.50;;;4.00;;
72284;SDS011;60220;53.552;10.092;2023-05-10T14:21:57;5.60;;;4.45;;
72284;SDS011;60220;53.552;10.092;2023-05-10T14:24:26;5.32;;;4.18;;
72284;SDS011;60220;53.552;10.092;2023-05-10T14:26:54;5.82;;;4.05;;
72284;SDS011;60220;53.552;10.092;2023-05-10T14:29:21;6.43;;;4.07;;
72284;SDS011;60220;53.552;10.092;2023-05-10T14:31:48;4.65;;;3.78;;
72284;SDS011;60220;53.552;10.092;2023-05-10T14:34:15;4.55;;;3.95;;
72284;SDS011;60220;53.552;10.092;2023-05-10T14:36:44;6.85;;;4.55;;
72284;SDS011;60220;53.552;10.092;2023-05-10T14:39:13;4.82;;;4.00;;
72284;SDS011;60220;53.552;10.092;2023-05-10T14:41:40;5.50;;;4.00;;
72284;SDS011;60220;53.552;10.092;2023-05-10T14:44:09;6.03;;;4.28;;
72284;SDS011;60220;53.552;10.092;2023-05-10T14:46:38;5.28;;;4.20;;
72284;SDS011;60220;53.552;10.092;2023-05-10T14:49:05;6.18;;;4.88;;